createdAt,value
2023-04-08T00:00:11.841Z,0.00
2023-04-08T00:01:11.758Z,0.00
2023-04-08T00:02:11.799Z,0.00
2023-04-08T00:03:11.801Z,0.00
2023-04-08T00:04:11.836Z,0.00
2023-04-08T00:05:11.684Z,0.00
2023-04-08T00:06:11.704Z,0.00
2023-04-08T00:07:11.659Z,0.00
2023-04-08T00:08:11.655Z,0.00
2023-04-08T00:09:11.683Z,0.00
2023-04-08T00:10:11.632Z,0.00
2023-04-08T00:11:11.654Z,0.00
2023-04-08T00:12:11.619Z,0.00
2023-04-08T00:13:11.618Z,0.00
2023-04-08T00:14:11.619Z,0.00
2023-04-08T00:15:11.626Z,0.00
2023-04-08T00:16:11.624Z,0.00
2023-04-08T00:17:11.636Z,0.00
2023-04-08T00:18:11.605Z,0.00
2023-04-08T00:19:11.573Z,0.00
2023-04-08T00:20:11.545Z,0.00
2023-04-08T00:21:11.581Z,0.00
2023-04-08T00:22:11.529Z,0.00
2023-04-08T00:23:11.521Z,0.00
2023-04-08T00:24:11.492Z,0.00
2023-04-08T00:25:11.495Z,0.00
2023-04-08T00:26:11.516Z,0.00
2023-04-08T00:27:11.519Z,0.00
2023-04-08T00:28:11.451Z,0.00
2023-04-08T00:29:11.461Z,0.00
2023-04-08T00:30:11.431Z,0.00
2023-04-08T00:31:11.476Z,0.00
2023-04-08T00:32:11.480Z,0.00
2023-04-08T00:33:11.454Z,0.00
2023-04-08T00:34:11.463Z,0.00
2023-04-08T00:35:11.394Z,0.00
2023-04-08T00:36:11.426Z,0.00
2023-04-08T00:37:11.372Z,0.00
2023-04-08T00:38:11.375Z,0.00
2023-04-08T00:39:11.356Z,0.00
2023-04-08T00:40:11.373Z,0.00
2023-04-08T00:41:11.336Z,0.00
2023-04-08T00:42:11.343Z,0.00
2023-04-08T00:43:11.402Z,0.00
2023-04-08T00:44:11.343Z,0.00
2023-04-08T00:45:11.324Z,0.00
2023-04-08T00:46:11.290Z,0.00
2023-04-08T00:47:11.324Z,0.00
2023-04-08T00:48:11.304Z,0.00
2023-04-08T00:49:11.301Z,0.00
2023-04-08T00:50:11.257Z,0.00
2023-04-08T00:51:11.255Z,0.00
2023-04-08T00:52:11.264Z,0.00
2023-04-08T00:53:11.371Z,0.00
2023-04-08T00:54:11.229Z,0.00
2023-04-08T00:55:11.223Z,0.00
2023-04-08T00:56:11.218Z,0.00
2023-04-08T00:57:11.208Z,0.00
2023-04-08T00:58:11.193Z,0.00
2023-04-08T00:59:11.162Z,0.00
2023-04-08T01:00:11.179Z,0.00
2023-04-08T01:01:11.262Z,0.00
2023-04-08T01:02:11.235Z,0.00
2023-04-08T01:03:11.396Z,0.00
2023-04-08T01:04:11.245Z,0.00
2023-04-08T01:05:11.135Z,0.00
2023-04-08T01:06:11.104Z,0.00
2023-04-08T01:07:11.107Z,0.00
2023-04-08T01:08:11.101Z,0.00
2023-04-08T01:09:11.087Z,0.00
2023-04-08T01:10:11.090Z,0.00
2023-04-08T01:11:11.062Z,0.00
2023-04-08T01:12:11.076Z,0.00
2023-04-08T01:13:11.066Z,0.00
2023-04-08T01:14:11.005Z,0.00
2023-04-08T01:15:11.023Z,0.00
2023-04-08T01:16:11.114Z,0.00
2023-04-08T01:17:10.991Z,0.00
2023-04-08T01:18:10.977Z,0.00
2023-04-08T01:19:10.974Z,0.00
2023-04-08T01:20:10.964Z,0.00
2023-04-08T01:21:10.984Z,0.00
2023-04-08T01:22:10.990Z,0.00
2023-04-08T01:23:10.958Z,0.00
2023-04-08T01:24:10.931Z,0.00
2023-04-08T01:25:10.920Z,0.00
2023-04-08T01:26:10.904Z,0.00
2023-04-08T01:27:10.898Z,0.00
2023-04-08T01:28:10.870Z,0.00
2023-04-08T01:29:10.909Z,0.00
2023-04-08T01:30:10.879Z,0.00
2023-04-08T01:31:10.900Z,0.00
2023-04-08T01:32:10.857Z,0.00
2023-04-08T01:33:10.861Z,0.00
2023-04-08T01:34:10.815Z,0.00
2023-04-08T01:35:10.828Z,0.00
2023-04-08T01:36:10.826Z,0.00
2023-04-08T01:37:10.871Z,0.00
2023-04-08T01:38:10.825Z,0.00
2023-04-08T01:39:10.802Z,0.00
2023-04-08T01:40:10.825Z,0.00
2023-04-08T01:41:10.868Z,0.00
2023-04-08T01:42:10.761Z,0.00
2023-04-08T01:43:10.772Z,0.00
2023-04-08T01:44:10.723Z,0.00
2023-04-08T01:45:10.737Z,0.00
2023-04-08T01:46:10.808Z,0.00
2023-04-08T01:47:10.727Z,0.00
2023-04-08T01:48:10.705Z,0.00
2023-04-08T01:49:10.722Z,0.00
2023-04-08T01:50:10.702Z,0.00
2023-04-08T01:51:10.714Z,0.00
2023-04-08T01:52:10.664Z,0.00
2023-04-08T01:53:11.683Z,0.00
2023-04-08T01:54:10.656Z,0.00
2023-04-08T01:55:10.658Z,0.00
2023-04-08T01:56:10.662Z,0.00
2023-04-08T01:57:10.639Z,0.00
2023-04-08T01:58:10.615Z,0.00
2023-04-08T01:59:10.608Z,0.00
2023-04-08T02:00:10.575Z,0.00
2023-04-08T02:01:10.616Z,0.00
2023-04-08T02:02:10.677Z,0.00
2023-04-08T02:03:10.824Z,0.00
2023-04-08T02:04:10.676Z,0.00
2023-04-08T02:05:10.560Z,0.00
2023-04-08T02:06:10.529Z,0.00
2023-04-08T02:07:10.530Z,0.00
2023-04-08T02:08:10.532Z,0.00
2023-04-08T02:09:10.538Z,0.00
2023-04-08T02:10:10.513Z,0.00
2023-04-08T02:11:10.542Z,0.00
2023-04-08T02:12:10.465Z,0.00
2023-04-08T02:13:10.498Z,0.00
2023-04-08T02:14:10.473Z,0.00
2023-04-08T02:15:10.444Z,0.00
2023-04-08T02:16:10.488Z,0.00
2023-04-08T02:17:10.455Z,0.00
2023-04-08T02:18:10.451Z,0.00
2023-04-08T02:19:10.447Z,0.00
2023-04-08T02:20:10.381Z,0.00
2023-04-08T02:21:10.399Z,0.00
2023-04-08T02:22:10.417Z,0.00
2023-04-08T02:23:10.391Z,0.00
2023-04-08T02:24:10.364Z,0.00
2023-04-08T02:25:10.362Z,0.00
2023-04-08T02:26:10.352Z,0.00
2023-04-08T02:27:42.284Z,0.00
2023-04-08T02:28:10.341Z,0.00
2023-04-08T02:29:10.337Z,0.00
2023-04-08T02:30:10.324Z,0.00
2023-04-08T02:31:10.320Z,0.00
2023-04-08T02:32:10.288Z,0.00
2023-04-08T02:33:10.348Z,0.00
2023-04-08T02:34:10.281Z,0.00
2023-04-08T02:35:11.280Z,0.00
2023-04-08T02:36:10.237Z,0.00
2023-04-08T02:37:10.213Z,0.00
2023-04-08T02:38:10.214Z,0.00
2023-04-08T02:39:10.256Z,0.00
2023-04-08T02:40:10.238Z,0.00
2023-04-08T02:41:10.290Z,0.00
2023-04-08T02:42:11.834Z,0.00
2023-04-08T02:43:11.407Z,0.00
2023-04-08T02:44:10.182Z,0.00
2023-04-08T02:45:10.184Z,0.00
2023-04-08T02:46:10.201Z,0.00
2023-04-08T02:47:10.135Z,0.00
2023-04-08T02:48:10.119Z,0.00
2023-04-08T02:49:10.127Z,0.00
2023-04-08T02:50:10.096Z,0.00
2023-04-08T02:51:10.118Z,0.00
2023-04-08T02:52:10.087Z,0.00
2023-04-08T02:53:10.060Z,0.00
2023-04-08T02:54:10.068Z,0.00
2023-04-08T02:55:10.069Z,0.00
2023-04-08T02:56:10.113Z,0.00
2023-04-08T02:57:10.032Z,0.00
2023-04-08T02:58:10.039Z,0.00
2023-04-08T02:59:10.061Z,0.00
2023-04-08T03:00:10.035Z,0.00
2023-04-08T03:01:10.038Z,0.00
2023-04-08T03:02:10.094Z,0.00
2023-04-08T03:03:10.081Z,0.00
2023-04-08T03:04:09.957Z,0.00
2023-04-08T03:05:09.975Z,0.00
2023-04-08T03:06:09.936Z,0.00
2023-04-08T03:07:09.964Z,0.00
2023-04-08T03:08:09.950Z,0.00
2023-04-08T03:09:09.943Z,0.00
2023-04-08T03:10:09.912Z,0.00
2023-04-08T03:11:09.886Z,0.00
2023-04-08T03:12:09.881Z,0.00
2023-04-08T03:13:09.901Z,0.00
2023-04-08T03:14:09.872Z,0.00
2023-04-08T03:15:09.878Z,0.00
2023-04-08T03:16:09.876Z,0.00
2023-04-08T03:17:09.861Z,0.00
2023-04-08T03:18:09.844Z,0.00
2023-04-08T03:19:09.836Z,0.00
2023-04-08T03:20:09.838Z,0.00
2023-04-08T03:21:09.840Z,0.00
2023-04-08T03:22:09.815Z,0.00
2023-04-08T03:23:09.790Z,0.00
2023-04-08T03:24:09.813Z,0.00
2023-04-08T03:25:09.781Z,0.00
2023-04-08T03:26:09.762Z,0.00
2023-04-08T03:27:09.750Z,0.00
2023-04-08T03:28:09.741Z,0.00
2023-04-08T03:29:09.744Z,0.00
2023-04-08T03:30:09.757Z,0.00
2023-04-08T03:31:09.708Z,0.00
2023-04-08T03:32:09.782Z,0.00
2023-04-08T03:33:09.772Z,0.00
2023-04-08T03:34:09.711Z,0.00
2023-04-08T03:35:09.704Z,0.00
2023-04-08T03:36:09.660Z,0.00
2023-04-08T03:37:09.668Z,0.00
2023-04-08T03:38:09.655Z,0.00
2023-04-08T03:39:09.652Z,0.00
2023-04-08T03:40:09.643Z,0.00
2023-04-08T03:41:09.636Z,0.00
2023-04-08T03:42:09.651Z,0.00
2023-04-08T03:43:09.599Z,0.00
2023-04-08T03:44:09.607Z,0.00
2023-04-08T03:45:09.588Z,0.00
2023-04-08T03:46:09.648Z,0.00
2023-04-08T03:47:09.583Z,0.00
2023-04-08T03:48:09.534Z,0.00
2023-04-08T03:49:09.540Z,0.00
2023-04-08T03:50:09.510Z,0.00
2023-04-08T03:51:09.560Z,0.00
2023-04-08T03:52:09.498Z,0.00
2023-04-08T03:53:09.498Z,0.00
2023-04-08T03:54:09.498Z,0.00
2023-04-08T03:55:09.486Z,0.00
2023-04-08T03:56:09.486Z,0.00
2023-04-08T03:57:09.522Z,0.00
2023-04-08T03:58:09.544Z,0.00
2023-04-08T03:59:09.440Z,0.00
2023-04-08T04:00:09.436Z,0.00
2023-04-08T04:01:09.460Z,0.00
2023-04-08T04:02:09.490Z,0.00
2023-04-08T04:03:09.573Z,0.00
2023-04-08T04:04:09.552Z,0.00
2023-04-08T04:05:09.358Z,0.00
2023-04-08T04:06:09.372Z,0.00
2023-04-08T04:07:09.396Z,0.00
2023-04-08T04:08:09.406Z,0.00
2023-04-08T04:09:09.351Z,0.00
2023-04-08T04:10:09.355Z,0.00
2023-04-08T04:11:09.344Z,0.00
2023-04-08T04:12:09.355Z,0.00
2023-04-08T04:13:09.312Z,0.00
2023-04-08T04:14:09.285Z,0.00
2023-04-08T04:15:09.276Z,0.00
2023-04-08T04:16:09.309Z,0.00
2023-04-08T04:17:09.260Z,0.00
2023-04-08T04:18:09.472Z,4.00
2023-04-08T04:19:09.259Z,4.00
2023-04-08T04:20:09.257Z,0.00
2023-04-08T04:21:09.223Z,0.00
2023-04-08T04:22:09.227Z,4.00
2023-04-08T04:23:09.245Z,4.00
2023-04-08T04:24:09.200Z,4.00
2023-04-08T04:25:09.185Z,4.00
2023-04-08T04:26:09.193Z,4.00
2023-04-08T04:27:09.153Z,8.00
2023-04-08T04:28:09.180Z,8.00
2023-04-08T04:29:09.136Z,8.00
2023-04-08T04:30:09.152Z,8.00
2023-04-08T04:31:09.204Z,12.00
2023-04-08T04:32:09.151Z,12.00
2023-04-08T04:33:09.112Z,16.00
2023-04-08T04:34:09.088Z,16.00
2023-04-08T04:35:09.088Z,16.00
2023-04-08T04:36:09.105Z,16.00
2023-04-08T04:37:09.092Z,24.00
2023-04-08T04:38:09.047Z,20.00
2023-04-08T04:39:09.064Z,24.00
2023-04-08T04:40:09.061Z,32.00
2023-04-08T04:41:09.079Z,32.00
2023-04-08T04:42:09.017Z,36.00
2023-04-08T04:43:08.993Z,40.00
2023-04-08T04:44:09.039Z,44.00
2023-04-08T04:45:09.029Z,48.00
2023-04-08T04:46:09.112Z,52.00
2023-04-08T04:47:08.962Z,60.00
2023-04-08T04:48:08.967Z,68.00
2023-04-08T04:49:08.947Z,72.00
2023-04-08T04:50:09.002Z,84.00
2023-04-08T04:51:08.954Z,88.00
2023-04-08T04:52:08.923Z,92.00
2023-04-08T04:53:08.913Z,100.00
2023-04-08T04:54:08.883Z,104.00
2023-04-08T04:55:08.934Z,108.00
2023-04-08T04:56:08.945Z,116.00
2023-04-08T04:57:08.896Z,128.00
2023-04-08T04:58:08.863Z,136.00
2023-04-08T04:59:08.879Z,140.00
2023-04-08T05:00:08.875Z,144.00
2023-04-08T05:01:08.861Z,152.00
2023-04-08T05:02:08.909Z,160.00
2023-04-08T05:03:08.922Z,168.00
2023-04-08T05:04:08.822Z,180.00
2023-04-08T05:05:08.807Z,188.00
2023-04-08T05:06:08.811Z,196.00
2023-04-08T05:07:08.810Z,208.00
2023-04-08T05:08:08.755Z,216.00
2023-04-08T05:09:08.764Z,220.00
2023-04-08T05:10:08.751Z,232.00
2023-04-08T05:11:08.870Z,236.00
2023-04-08T05:12:08.733Z,240.00
2023-04-08T05:13:08.782Z,256.00
2023-04-08T05:14:08.738Z,268.00
2023-04-08T05:15:08.686Z,288.00
2023-04-08T05:16:08.733Z,308.00
2023-04-08T05:17:08.663Z,324.00
2023-04-08T05:18:08.736Z,336.00
2023-04-08T05:19:08.693Z,352.00
2023-04-08T05:20:08.667Z,372.00
2023-04-08T05:21:08.649Z,380.00
2023-04-08T05:22:08.692Z,400.00
2023-04-08T05:23:08.641Z,412.00
2023-04-08T05:24:08.699Z,432.00
2023-04-08T05:25:08.624Z,448.00
2023-04-08T05:26:08.606Z,468.00
2023-04-08T05:27:08.586Z,496.00
2023-04-08T05:28:08.608Z,520.00
2023-04-08T05:29:08.585Z,548.00
2023-04-08T05:30:08.548Z,572.00
2023-04-08T05:31:08.636Z,604.00
2023-04-08T05:32:08.578Z,632.00
2023-04-08T05:33:08.579Z,664.00
2023-04-08T05:34:08.490Z,692.00
2023-04-08T05:35:08.521Z,716.00
2023-04-08T05:36:08.510Z,736.00
2023-04-08T05:37:08.521Z,756.00
2023-04-08T05:38:08.519Z,780.00
2023-04-08T05:39:08.496Z,812.00
2023-04-08T05:40:08.468Z,840.00
2023-04-08T05:41:08.444Z,880.00
2023-04-08T05:42:08.436Z,924.00
2023-04-08T05:43:08.454Z,984.00
2023-04-08T05:44:08.435Z,1052.00
2023-04-08T05:45:09.436Z,1124.00
2023-04-08T05:46:08.401Z,1192.00
2023-04-08T05:47:08.492Z,1260.00
2023-04-08T05:48:08.425Z,1308.00
2023-04-08T05:49:08.424Z,1352.00
2023-04-08T05:50:08.407Z,1384.00
2023-04-08T05:51:08.352Z,1444.00
2023-04-08T05:52:08.361Z,1540.00
2023-04-08T05:53:08.357Z,1648.00
2023-04-08T05:54:08.364Z,1768.00
2023-04-08T05:55:08.333Z,1856.00
2023-04-08T05:56:08.328Z,1904.00
2023-04-08T05:57:10.258Z,1904.00
2023-04-08T05:58:09.287Z,1872.00
2023-04-08T05:59:08.300Z,1828.00
2023-04-08T06:00:08.289Z,1772.00
2023-04-08T06:01:08.262Z,1732.00
2023-04-08T06:02:08.361Z,1724.00
2023-04-08T06:03:08.393Z,1780.00
2023-04-08T06:04:08.281Z,1828.00
2023-04-08T06:05:08.235Z,1852.00
2023-04-08T06:06:08.261Z,1876.00
2023-04-08T06:07:08.191Z,1908.00
2023-04-08T06:08:08.200Z,1952.00
2023-04-08T06:09:08.170Z,2004.00
2023-04-08T06:10:08.184Z,2088.00
2023-04-08T06:11:08.143Z,2220.00
2023-04-08T06:12:08.165Z,2368.00
2023-04-08T06:13:08.140Z,2512.00
2023-04-08T06:14:08.145Z,2652.00
2023-04-08T06:15:08.113Z,2760.00
2023-04-08T06:16:08.153Z,2856.00
2023-04-08T06:17:08.074Z,3004.00
2023-04-08T06:18:08.094Z,3136.00
2023-04-08T06:19:08.141Z,3228.00
2023-04-08T06:20:08.071Z,3332.00
2023-04-08T06:21:08.075Z,3432.00
2023-04-08T06:22:09.050Z,3484.00
2023-04-08T06:23:08.044Z,3504.00
2023-04-08T06:24:08.003Z,3496.00
2023-04-08T06:25:08.023Z,3428.00
2023-04-08T06:26:08.007Z,3304.00
2023-04-08T06:27:08.016Z,3168.00
2023-04-08T06:28:07.984Z,3176.00
2023-04-08T06:29:07.998Z,3192.00
2023-04-08T06:30:07.981Z,3144.00
2023-04-08T06:31:08.165Z,3088.00
2023-04-08T06:32:08.040Z,3064.00
2023-04-08T06:33:07.948Z,3028.00
2023-04-08T06:34:07.936Z,2980.00
2023-04-08T06:35:07.940Z,3000.00
2023-04-08T06:36:07.971Z,3120.00
2023-04-08T06:37:07.908Z,3264.00
2023-04-08T06:38:07.885Z,3432.00
2023-04-08T06:39:07.926Z,3536.00
2023-04-08T06:40:08.918Z,3532.00
2023-04-08T06:41:07.926Z,3588.00
2023-04-08T06:42:07.832Z,3676.00
2023-04-08T06:43:07.854Z,3668.00
2023-04-08T06:44:07.905Z,3600.00
2023-04-08T06:45:07.883Z,3568.00
2023-04-08T06:46:07.870Z,3476.00
2023-04-08T06:47:07.803Z,3336.00
2023-04-08T06:48:07.790Z,3288.00
2023-04-08T06:49:07.766Z,3276.00
2023-04-08T06:50:07.815Z,3308.00
2023-04-08T06:51:07.865Z,3368.00
2023-04-08T06:52:07.771Z,3444.00
2023-04-08T06:53:07.743Z,3544.00
2023-04-08T06:54:07.768Z,3704.00
2023-04-08T06:55:07.756Z,3876.00
2023-04-08T06:56:07.694Z,4032.00
2023-04-08T06:57:07.698Z,4212.00
2023-04-08T06:58:07.698Z,4492.00
2023-04-08T06:59:07.747Z,4876.00
2023-04-08T07:00:07.693Z,5400.00
2023-04-08T07:01:29.670Z,6156.00
2023-04-08T07:02:09.596Z,7128.00
2023-04-08T07:03:07.753Z,7964.00
2023-04-08T07:04:07.674Z,8396.00
2023-04-08T07:05:07.639Z,8308.00
2023-04-08T07:06:07.616Z,8308.00
2023-04-08T07:07:07.642Z,8240.00
2023-04-08T07:08:07.614Z,7764.00
2023-04-08T07:09:07.612Z,6900.00
2023-04-08T07:10:10.351Z,6112.00
2023-04-08T07:11:07.799Z,5552.00
2023-04-08T07:12:07.584Z,5148.00
2023-04-08T07:13:07.625Z,4772.00
2023-04-08T07:14:07.555Z,4280.00
2023-04-08T07:15:07.526Z,3952.00
2023-04-08T07:16:07.529Z,3876.00
2023-04-08T07:17:07.675Z,4032.00
2023-04-08T07:18:07.535Z,4400.00
2023-04-08T07:19:07.537Z,4552.00
2023-04-08T07:20:07.503Z,4156.00
2023-04-08T07:21:07.490Z,3820.00
2023-04-08T07:22:07.485Z,3756.00
2023-04-08T07:23:07.509Z,3712.00
2023-04-08T07:24:07.474Z,3756.00
2023-04-08T07:25:07.461Z,3608.00
2023-04-08T07:26:07.447Z,3156.00
2023-04-08T07:27:07.415Z,2664.00
2023-04-08T07:28:07.383Z,2444.00
2023-04-08T07:29:07.416Z,2568.00
2023-04-08T07:30:07.431Z,2996.00
2023-04-08T07:31:07.403Z,3604.00
2023-04-08T07:32:07.354Z,4160.00
2023-04-08T07:33:07.371Z,4668.00
2023-04-08T07:34:07.357Z,5124.00
2023-04-08T07:35:08.343Z,5660.00
2023-04-08T07:36:07.365Z,5652.00
2023-04-08T07:37:07.340Z,5356.00
2023-04-08T07:38:07.310Z,5352.00
2023-04-08T07:39:07.322Z,5008.00
2023-04-08T07:40:07.288Z,4628.00
2023-04-08T07:41:07.259Z,4520.00
2023-04-08T07:42:07.259Z,4728.00
2023-04-08T07:43:07.267Z,5108.00
2023-04-08T07:44:07.234Z,5220.00
2023-04-08T07:45:07.334Z,5144.00
2023-04-08T07:46:07.291Z,5292.00
2023-04-08T07:47:07.247Z,5284.00
2023-04-08T07:48:07.249Z,5152.00
2023-04-08T07:49:07.208Z,5232.00
2023-04-08T07:50:07.180Z,5460.00
2023-04-08T07:51:08.600Z,5604.00
2023-04-08T07:52:07.181Z,5436.00
2023-04-08T07:53:08.221Z,5396.00
2023-04-08T07:54:07.192Z,5512.00
2023-04-08T07:55:07.162Z,5588.00
2023-04-08T07:56:07.116Z,5636.00
2023-04-08T07:57:07.185Z,5456.00
2023-04-08T07:58:07.151Z,5312.00
2023-04-08T07:59:07.157Z,5284.00
2023-04-08T08:00:07.108Z,5252.00
2023-04-08T08:01:07.089Z,5212.00
2023-04-08T08:02:07.113Z,5388.00
2023-04-08T08:03:07.141Z,5532.00
2023-04-08T08:04:07.234Z,5692.00
2023-04-08T08:05:07.110Z,5760.00
2023-04-08T08:06:07.056Z,5660.00
2023-04-08T08:07:07.033Z,5612.00
2023-04-08T08:08:07.049Z,5756.00
2023-04-08T08:09:07.004Z,6212.00
2023-04-08T08:10:06.993Z,6644.00
2023-04-08T08:11:07.017Z,6940.00
2023-04-08T08:12:07.001Z,6940.00
2023-04-08T08:13:06.984Z,6608.00
2023-04-08T08:14:06.958Z,6212.00
2023-04-08T08:15:06.944Z,6064.00
2023-04-08T08:16:07.007Z,5932.00
2023-04-08T08:17:06.962Z,5780.00
2023-04-08T08:18:06.940Z,5652.00
2023-04-08T08:19:06.896Z,5592.00
2023-04-08T08:20:06.900Z,5544.00
2023-04-08T08:21:06.913Z,5596.00
2023-04-08T08:22:06.937Z,5740.00
2023-04-08T08:23:07.890Z,5672.00
2023-04-08T08:24:06.857Z,5312.00
2023-04-08T08:25:06.877Z,4896.00
2023-04-08T08:26:06.848Z,4716.00
2023-04-08T08:27:38.779Z,4756.00
2023-04-08T08:28:06.846Z,4956.00
2023-04-08T08:29:06.871Z,5236.00
2023-04-08T08:30:06.849Z,5280.00
2023-04-08T08:31:06.828Z,5236.00
2023-04-08T08:32:06.800Z,5184.00
2023-04-08T08:33:06.795Z,5060.00
2023-04-08T08:34:06.755Z,4976.00
2023-04-08T08:35:06.785Z,4832.00
2023-04-08T08:36:06.815Z,4684.00
2023-04-08T08:37:06.761Z,4636.00
2023-04-08T08:38:30.766Z,4724.00
2023-04-08T08:39:14.095Z,4792.00
2023-04-08T08:40:07.752Z,4752.00
2023-04-08T08:41:06.728Z,4648.00
2023-04-08T08:42:06.747Z,4584.00
2023-04-08T08:43:06.699Z,4408.00
2023-04-08T08:44:06.740Z,4316.00
2023-04-08T08:45:06.650Z,4320.00
2023-04-08T08:46:06.722Z,4464.00
2023-04-08T08:47:06.643Z,4684.00
2023-04-08T08:48:06.822Z,4772.00
2023-04-08T08:49:06.651Z,4812.00
2023-04-08T08:50:06.623Z,4900.00
2023-04-08T08:51:06.640Z,4816.00
2023-04-08T08:52:06.586Z,4616.00
2023-04-08T08:53:06.586Z,4296.00
2023-04-08T08:54:06.584Z,4164.00
2023-04-08T08:55:21.543Z,4176.00
2023-04-08T08:56:17.987Z,4260.00
2023-04-08T08:57:07.591Z,4244.00
2023-04-08T08:58:06.521Z,4388.00
2023-04-08T08:59:06.577Z,4456.00
2023-04-08T09:00:06.498Z,4528.00
2023-04-08T09:01:06.567Z,4896.00
2023-04-08T09:02:06.544Z,5196.00
2023-04-08T09:03:06.674Z,5132.00
2023-04-08T09:04:06.551Z,5204.00
2023-04-08T09:05:06.687Z,5828.00
2023-04-08T09:06:06.483Z,6820.00
2023-04-08T09:07:06.456Z,7784.00
2023-04-08T09:08:06.440Z,8308.00
2023-04-08T09:09:06.431Z,8468.00
2023-04-08T09:10:06.449Z,8528.00
2023-04-08T09:11:06.422Z,8500.00
2023-04-08T09:12:06.408Z,8364.00
2023-04-08T09:13:07.399Z,8540.00
2023-04-08T09:14:06.393Z,9032.00
2023-04-08T09:15:06.345Z,9264.00
2023-04-08T09:16:06.396Z,9596.00
2023-04-08T09:17:06.346Z,10004.00
2023-04-08T09:18:06.394Z,9920.00
2023-04-08T09:19:06.339Z,9400.00
2023-04-08T09:20:06.397Z,9040.00
2023-04-08T09:21:06.322Z,8912.00
2023-04-08T09:22:06.312Z,9824.00
2023-04-08T09:23:06.340Z,10996.00
2023-04-08T09:24:06.307Z,11840.00
2023-04-08T09:25:06.311Z,11896.00
2023-04-08T09:26:06.296Z,11728.00
2023-04-08T09:27:06.308Z,12064.00
2023-04-08T09:28:06.248Z,12660.00
2023-04-08T09:29:18.830Z,13092.00
2023-04-08T09:30:08.266Z,13408.00
2023-04-08T09:31:06.205Z,13440.00
2023-04-08T09:32:06.408Z,13668.00
2023-04-08T09:33:06.217Z,13556.00
2023-04-08T09:34:06.183Z,13068.00
2023-04-08T09:35:07.037Z,12580.00
2023-04-08T09:36:07.242Z,12668.00
2023-04-08T09:37:06.187Z,12932.00
2023-04-08T09:38:06.176Z,13752.00
2023-04-08T09:39:06.132Z,15752.00
2023-04-08T09:40:06.186Z,18720.00
2023-04-08T09:41:06.140Z,18176.00
2023-04-08T09:42:06.110Z,14372.00
2023-04-08T09:43:07.094Z,13492.00
2023-04-08T09:44:06.072Z,12248.00
2023-04-08T09:45:06.090Z,11400.00
2023-04-08T09:46:06.130Z,11204.00
2023-04-08T09:47:06.086Z,10252.00
2023-04-08T09:48:06.095Z,9376.00
2023-04-08T09:49:06.041Z,8812.00
2023-04-08T09:50:06.050Z,7608.00
2023-04-08T09:51:06.049Z,7160.00
2023-04-08T09:52:06.033Z,7432.00
2023-04-08T09:53:06.017Z,7832.00
2023-04-08T09:54:06.002Z,7960.00
2023-04-08T09:55:05.970Z,7312.00
2023-04-08T09:56:05.995Z,7108.00
2023-04-08T09:57:05.974Z,7460.00
2023-04-08T09:58:05.949Z,7740.00
2023-04-08T09:59:06.871Z,8316.00
2023-04-08T10:00:05.950Z,9364.00
2023-04-08T10:01:05.947Z,10356.00
2023-04-08T10:02:06.033Z,11312.00
2023-04-08T10:03:06.251Z,11464.00
2023-04-08T10:04:06.004Z,11616.00
2023-04-08T10:05:08.258Z,12084.00
2023-04-08T10:06:06.940Z,12556.00
2023-04-08T10:07:05.881Z,13724.00
2023-04-08T10:08:05.896Z,14428.00
2023-04-08T10:09:05.840Z,15912.00
2023-04-08T10:10:05.845Z,17184.00
2023-04-08T10:11:05.895Z,15264.00
2023-04-08T10:12:05.812Z,14536.00
2023-04-08T10:13:05.842Z,16080.00
2023-04-08T10:14:05.799Z,15740.00
2023-04-08T10:15:05.801Z,12008.00
2023-04-08T10:16:07.631Z,8928.00
2023-04-08T10:17:05.848Z,8340.00
2023-04-08T10:18:05.862Z,8752.00
2023-04-08T10:19:05.768Z,8656.00
2023-04-08T10:20:05.733Z,9096.00
2023-04-08T10:21:05.742Z,9544.00
2023-04-08T10:22:07.489Z,10420.00
2023-04-08T10:23:05.715Z,10768.00
2023-04-08T10:24:05.730Z,11584.00
2023-04-08T10:25:05.718Z,12420.00
2023-04-08T10:26:05.718Z,12996.00
2023-04-08T10:27:05.700Z,13024.00
2023-04-08T10:28:07.566Z,12260.00
2023-04-08T10:29:05.649Z,11180.00
2023-04-08T10:30:05.664Z,10092.00
2023-04-08T10:31:05.659Z,9148.00
2023-04-08T10:32:05.644Z,8580.00
2023-04-08T10:33:05.684Z,8440.00
2023-04-08T10:34:05.620Z,8224.00
2023-04-08T10:35:05.571Z,7776.00
2023-04-08T10:36:05.608Z,7316.00
2023-04-08T10:37:05.580Z,6816.00
2023-04-08T10:38:05.573Z,6440.00
2023-04-08T10:39:05.554Z,6188.00
2023-04-08T10:40:05.569Z,5964.00
2023-04-08T10:41:05.626Z,5712.00
2023-04-08T10:42:05.562Z,5532.00
2023-04-08T10:43:05.516Z,5516.00
2023-04-08T10:44:05.532Z,5532.00
2023-04-08T10:45:05.481Z,5452.00
2023-04-08T10:46:05.622Z,5364.00
2023-04-08T10:47:05.518Z,5208.00
2023-04-08T10:48:05.502Z,5016.00
2023-04-08T10:49:05.494Z,4884.00
2023-04-08T10:50:05.441Z,4792.00
2023-04-08T10:51:05.446Z,4760.00
2023-04-08T10:52:05.531Z,4804.00
2023-04-08T10:53:05.398Z,4972.00
2023-04-08T10:54:05.428Z,5084.00
2023-04-08T10:55:05.388Z,5012.00
2023-04-08T10:56:05.392Z,4972.00
2023-04-08T10:57:05.378Z,4936.00
2023-04-08T10:58:05.368Z,4784.00
2023-04-08T10:59:05.357Z,4556.00
2023-04-08T11:00:05.366Z,4424.00
2023-04-08T11:01:05.471Z,4348.00
2023-04-08T11:02:05.442Z,4284.00
2023-04-08T11:03:05.492Z,4264.00
2023-04-08T11:04:05.555Z,4236.00
2023-04-08T11:05:05.327Z,4232.00
2023-04-08T11:06:05.378Z,4272.00
2023-04-08T11:07:05.286Z,4440.00
2023-04-08T11:08:05.284Z,4580.00
2023-04-08T11:09:05.261Z,4620.00
2023-04-08T11:10:05.310Z,4644.00
2023-04-08T11:11:05.247Z,4792.00
2023-04-08T11:12:05.236Z,5104.00
2023-04-08T11:13:05.278Z,5516.00
2023-04-08T11:14:06.239Z,6120.00
2023-04-08T11:15:05.235Z,6776.00
2023-04-08T11:16:17.094Z,7504.00
2023-04-08T11:17:07.182Z,8392.00
2023-04-08T11:18:05.380Z,9692.00
2023-04-08T11:19:05.181Z,10768.00
2023-04-08T11:20:05.288Z,10936.00
2023-04-08T11:21:05.134Z,10336.00
2023-04-08T11:22:05.166Z,9548.00
2023-04-08T11:23:05.304Z,9020.00
2023-04-08T11:24:05.114Z,9116.00
2023-04-08T11:25:05.122Z,9792.00
2023-04-08T11:26:06.100Z,10344.00
2023-04-08T11:27:05.070Z,10080.00
2023-04-08T11:28:05.088Z,10028.00
2023-04-08T11:29:05.098Z,10568.00
2023-04-08T11:30:05.075Z,11620.00
2023-04-08T11:31:05.095Z,12060.00
2023-04-08T11:32:05.061Z,11692.00
2023-04-08T11:33:05.060Z,11436.00
2023-04-08T11:34:05.026Z,11860.00
2023-04-08T11:35:05.045Z,12968.00
2023-04-08T11:36:05.030Z,14428.00
2023-04-08T11:37:04.964Z,15192.00
2023-04-08T11:38:04.984Z,14292.00
2023-04-08T11:39:04.965Z,13316.00
2023-04-08T11:40:05.039Z,13256.00
2023-04-08T11:41:09.579Z,13696.00
2023-04-08T11:42:08.639Z,13120.00
2023-04-08T11:43:04.944Z,13188.00
2023-04-08T11:44:04.922Z,12388.00
2023-04-08T11:45:04.911Z,11900.00
2023-04-08T11:46:04.961Z,11944.00
2023-04-08T11:47:04.901Z,11880.00
2023-04-08T11:48:04.988Z,11768.00
2023-04-08T11:49:05.871Z,11732.00
2023-04-08T11:50:04.865Z,11736.00
2023-04-08T11:51:04.873Z,11708.00
2023-04-08T11:52:04.857Z,11180.00
2023-04-08T11:53:04.823Z,10212.00
2023-04-08T11:54:04.828Z,9972.00
2023-04-08T11:55:04.830Z,9684.00
2023-04-08T11:56:04.828Z,9532.00
2023-04-08T11:57:04.840Z,9376.00
2023-04-08T11:58:04.805Z,9076.00
2023-04-08T11:59:04.826Z,9160.00
2023-04-08T12:00:04.766Z,9548.00
2023-04-08T12:01:04.778Z,9972.00
2023-04-08T12:02:04.803Z,10200.00
2023-04-08T12:03:04.826Z,10540.00
2023-04-08T12:04:04.893Z,11100.00
2023-04-08T12:05:04.732Z,11784.00
2023-04-08T12:06:04.703Z,12492.00
2023-04-08T12:07:04.719Z,13344.00
2023-04-08T12:08:04.714Z,13540.00
2023-04-08T12:09:04.668Z,13348.00
2023-04-08T12:10:04.694Z,13300.00
2023-04-08T12:11:18.871Z,13348.00
2023-04-08T12:12:06.680Z,13696.00
2023-04-08T12:13:04.703Z,13808.00
2023-04-08T12:14:04.647Z,13892.00
2023-04-08T12:15:04.651Z,14096.00
2023-04-08T12:16:04.638Z,14420.00
2023-04-08T12:17:04.605Z,13852.00
2023-04-08T12:18:04.672Z,13960.00
2023-04-08T12:19:04.607Z,14012.00
2023-04-08T12:20:04.630Z,14224.00
2023-04-08T12:21:04.641Z,13992.00
2023-04-08T12:22:04.570Z,13672.00
2023-04-08T12:23:04.587Z,13276.00
2023-04-08T12:24:04.554Z,13100.00
2023-04-08T12:25:04.570Z,13528.00
2023-04-08T12:26:04.592Z,12856.00
2023-04-08T12:27:04.559Z,13740.00
2023-04-08T12:28:04.530Z,14624.00
2023-04-08T12:29:04.525Z,14980.00